createdAt,value
2023-05-01T00:00:41.693Z,26.85
2023-05-01T00:01:41.756Z,26.86
2023-05-01T00:02:41.854Z,26.86
2023-05-01T00:03:42.032Z,26.85
2023-05-01T00:04:41.981Z,26.84
2023-05-01T00:05:42.037Z,26.84
2023-05-01T00:06:42.180Z,26.83
2023-05-01T00:07:42.152Z,26.82
2023-05-01T00:08:42.193Z,26.83
2023-05-01T00:09:42.221Z,26.83
2023-05-01T00:10:42.375Z,26.82
2023-05-01T00:11:42.411Z,26.82
2023-05-01T00:12:42.434Z,26.81
2023-05-01T00:13:42.495Z,26.81
2023-05-01T00:14:42.539Z,26.80
2023-05-01T00:15:42.606Z,26.80
2023-05-01T00:16:42.714Z,26.80
2023-05-01T00:17:42.774Z,26.79
2023-05-01T00:18:42.784Z,26.79
2023-05-01T00:19:42.839Z,26.78
2023-05-01T00:20:42.847Z,26.79
2023-05-01T00:21:42.956Z,26.77
2023-05-01T00:22:43.026Z,26.77
2023-05-01T00:23:43.041Z,26.77
2023-05-01T00:24:43.147Z,26.76
2023-05-01T00:25:43.139Z,26.76
2023-05-01T00:26:43.256Z,26.77
2023-05-01T00:27:43.327Z,26.76
2023-05-01T00:28:43.373Z,26.76
2023-05-01T00:29:43.379Z,26.76
2023-05-01T00:30:43.491Z,26.75
2023-05-01T00:31:43.609Z,26.75
2023-05-01T00:32:43.662Z,26.75
2023-05-01T00:33:43.671Z,26.74
2023-05-01T00:34:43.698Z,26.74
2023-05-01T00:35:43.809Z,26.74
2023-05-01T00:36:43.810Z,26.74
2023-05-01T00:37:43.892Z,26.74
2023-05-01T00:38:44.924Z,26.74
2023-05-01T00:39:44.006Z,26.73
2023-05-01T00:40:44.123Z,26.74
2023-05-01T00:41:44.180Z,26.72
2023-05-01T00:42:44.201Z,26.72
2023-05-01T00:43:44.261Z,26.72
2023-05-01T00:44:44.424Z,26.72
2023-05-01T00:45:44.396Z,26.72
2023-05-01T00:46:44.420Z,26.72
2023-05-01T00:47:44.496Z,26.72
2023-05-01T00:48:44.530Z,26.70
2023-05-01T00:49:44.648Z,26.70
2023-05-01T00:50:44.648Z,26.70
2023-05-01T00:51:44.728Z,26.70
2023-05-01T00:52:44.817Z,26.69
2023-05-01T00:53:44.875Z,26.69
2023-05-01T00:54:44.930Z,26.69
2023-05-01T00:55:44.945Z,26.68
2023-05-01T00:56:45.001Z,26.68
2023-05-01T00:57:45.052Z,26.67
2023-05-01T00:58:45.168Z,26.67
2023-05-01T00:59:45.236Z,26.67
2023-05-01T01:00:45.307Z,26.66
2023-05-01T01:01:45.337Z,26.67
2023-05-01T01:02:45.403Z,26.66
2023-05-01T01:03:45.464Z,26.67
2023-05-01T01:04:45.613Z,26.67
2023-05-01T01:05:45.539Z,26.66
2023-05-01T01:06:45.649Z,26.66
2023-05-01T01:07:45.682Z,26.66
2023-05-01T01:08:45.748Z,26.65
2023-05-01T01:09:45.780Z,26.65
2023-05-01T01:10:45.859Z,26.65
2023-05-01T01:11:45.897Z,26.64
2023-05-01T01:12:45.971Z,26.64
2023-05-01T01:13:46.042Z,26.64
2023-05-01T01:14:46.092Z,26.63
2023-05-01T01:15:46.132Z,26.63
2023-05-01T01:16:46.275Z,26.64
2023-05-01T01:17:46.307Z,26.63
2023-05-01T01:18:46.298Z,26.62
2023-05-01T01:19:46.357Z,26.63
2023-05-01T01:20:46.399Z,26.62
2023-05-01T01:21:46.439Z,26.61
2023-05-01T01:22:46.500Z,26.62
2023-05-01T01:23:46.538Z,26.61
2023-05-01T01:24:46.616Z,26.62
2023-05-01T01:25:46.942Z,26.60
2023-05-01T01:26:46.687Z,26.60
2023-05-01T01:27:46.723Z,26.60
2023-05-01T01:28:46.744Z,26.60
2023-05-01T01:29:46.804Z,26.60
2023-05-01T01:30:46.915Z,26.59
2023-05-01T01:31:46.927Z,26.59
2023-05-01T01:32:46.968Z,26.58
2023-05-01T01:33:46.967Z,26.58
2023-05-01T01:34:47.042Z,26.59
2023-05-01T01:35:47.045Z,26.58
2023-05-01T01:36:47.046Z,26.58
2023-05-01T01:37:47.125Z,26.58
2023-05-01T01:38:47.120Z,26.58
2023-05-01T01:39:47.176Z,26.57
2023-05-01T01:40:47.190Z,26.57
2023-05-01T01:41:47.261Z,26.57
2023-05-01T01:42:47.256Z,26.56
2023-05-01T01:43:47.304Z,26.57
2023-05-01T01:44:47.309Z,26.56
2023-05-01T01:45:47.454Z,26.56
2023-05-01T01:46:47.582Z,26.55
2023-05-01T01:47:47.383Z,26.56
2023-05-01T01:48:47.399Z,26.54
2023-05-01T01:49:47.916Z,26.55
2023-05-01T01:50:47.464Z,26.55
2023-05-01T01:51:47.474Z,26.54
2023-05-01T01:52:47.495Z,26.53
2023-05-01T01:53:47.486Z,26.53
2023-05-01T01:54:47.496Z,26.54
2023-05-01T01:55:47.503Z,26.52
2023-05-01T01:56:47.560Z,26.53
2023-05-01T01:57:47.529Z,26.53
2023-05-01T01:58:47.560Z,26.53
2023-05-01T01:59:47.581Z,26.53
2023-05-01T02:00:47.604Z,26.52
2023-05-01T02:01:47.613Z,26.52
2023-05-01T02:02:47.627Z,26.51
2023-05-01T02:03:47.635Z,26.51
2023-05-01T02:04:47.613Z,26.51
2023-05-01T02:05:47.569Z,26.50
2023-05-01T02:06:47.597Z,26.50
2023-05-01T02:07:47.578Z,26.49
2023-05-01T02:08:47.594Z,26.50
2023-05-01T02:09:47.558Z,26.49
2023-05-01T02:10:47.556Z,26.50
2023-05-01T02:11:47.556Z,26.48
2023-05-01T02:12:47.563Z,26.48
2023-05-01T02:13:47.556Z,26.48
2023-05-01T02:14:47.578Z,26.48
2023-05-01T02:15:47.597Z,26.47
2023-05-01T02:16:47.553Z,26.48
2023-05-01T02:17:47.588Z,26.47
2023-05-01T02:18:47.552Z,26.47
2023-05-01T02:19:47.518Z,26.47
2023-05-01T02:20:47.566Z,26.47
2023-05-01T02:21:47.588Z,26.46
2023-05-01T02:22:47.534Z,26.46
2023-05-01T02:23:47.543Z,26.46
2023-05-01T02:24:47.554Z,26.45
2023-05-01T02:25:47.549Z,26.45
2023-05-01T02:26:47.547Z,26.45
2023-05-01T02:27:47.520Z,26.45
2023-05-01T02:28:47.536Z,26.45
2023-05-01T02:29:47.524Z,26.45
2023-05-01T02:30:47.540Z,26.44
2023-05-01T02:31:47.565Z,26.44
2023-05-01T02:32:47.580Z,26.43
2023-05-01T02:33:47.556Z,26.44
2023-05-01T02:34:47.512Z,26.43
2023-05-01T02:35:47.537Z,26.43
2023-05-01T02:36:47.496Z,26.43
2023-05-01T02:37:47.539Z,26.42
2023-05-01T02:38:47.499Z,26.42
2023-05-01T02:39:47.475Z,26.42
2023-05-01T02:40:47.510Z,26.42
2023-05-01T02:41:47.520Z,26.41
2023-05-01T02:42:47.525Z,26.41
2023-05-01T02:43:47.526Z,26.41
2023-05-01T02:44:47.486Z,26.40
2023-05-01T02:45:47.997Z,26.41
2023-05-01T02:46:47.513Z,26.40
2023-05-01T02:47:47.547Z,26.40
2023-05-01T02:48:47.502Z,26.40
2023-05-01T02:49:47.514Z,26.40
2023-05-01T02:50:47.522Z,26.39
2023-05-01T02:51:47.503Z,26.39
2023-05-01T02:52:47.529Z,26.39
2023-05-01T02:53:47.491Z,26.39
2023-05-01T02:54:47.519Z,26.39
2023-05-01T02:55:47.555Z,26.38
2023-05-01T02:56:47.511Z,26.38
2023-05-01T02:57:47.521Z,26.38
2023-05-01T02:58:47.536Z,26.37
2023-05-01T02:59:47.538Z,26.38
2023-05-01T03:00:47.605Z,26.38
2023-05-01T03:01:47.616Z,26.37
2023-05-01T03:02:48.040Z,26.36
2023-05-01T03:03:47.574Z,26.37
2023-05-01T03:04:47.631Z,26.36
2023-05-01T03:05:47.551Z,26.36
2023-05-01T03:06:47.586Z,26.36
2023-05-01T03:07:47.525Z,26.36
2023-05-01T03:08:47.547Z,26.35
2023-05-01T03:09:47.538Z,26.35
2023-05-01T03:10:47.554Z,26.36
2023-05-01T03:11:47.560Z,26.34
2023-05-01T03:12:47.530Z,26.34
2023-05-01T03:13:47.588Z,26.35
2023-05-01T03:14:47.573Z,26.34
2023-05-01T03:15:47.590Z,26.34
2023-05-01T03:16:47.684Z,26.33
2023-05-01T03:17:47.629Z,26.33
2023-05-01T03:18:47.605Z,26.33
2023-05-01T03:19:47.577Z,26.32
2023-05-01T03:20:47.633Z,26.32
2023-05-01T03:21:47.578Z,26.32
2023-05-01T03:22:47.591Z,26.32
2023-05-01T03:23:47.649Z,26.31
2023-05-01T03:24:47.662Z,26.31
2023-05-01T03:25:47.612Z,26.30
2023-05-01T03:26:47.667Z,26.30
2023-05-01T03:27:47.684Z,26.30
2023-05-01T03:28:47.679Z,26.29
2023-05-01T03:29:47.680Z,26.30
2023-05-01T03:30:47.696Z,26.30
2023-05-01T03:31:47.959Z,26.30
2023-05-01T03:32:47.774Z,26.29
2023-05-01T03:33:47.755Z,26.29
2023-05-01T03:34:47.813Z,26.29
2023-05-01T03:35:47.793Z,26.29
2023-05-01T03:36:47.783Z,26.29
2023-05-01T03:37:47.802Z,26.29
2023-05-01T03:38:47.785Z,26.28
2023-05-01T03:39:47.890Z,26.28
2023-05-01T03:40:47.811Z,26.28
2023-05-01T03:41:47.857Z,26.28
2023-05-01T03:42:47.870Z,26.27
2023-05-01T03:43:47.870Z,26.27
2023-05-01T03:44:47.903Z,26.27
2023-05-01T03:45:47.910Z,26.27
2023-05-01T03:46:47.999Z,26.26
2023-05-01T03:47:47.985Z,26.25
2023-05-01T03:48:47.914Z,26.27
2023-05-01T03:49:47.968Z,26.25
2023-05-01T03:50:47.922Z,26.25
2023-05-01T03:51:47.952Z,26.24
2023-05-01T03:52:47.946Z,26.25
2023-05-01T03:53:47.989Z,26.25
2023-05-01T03:54:48.012Z,26.24
2023-05-01T03:55:48.008Z,26.25
2023-05-01T03:56:48.048Z,26.25
2023-05-01T03:57:48.040Z,26.24
2023-05-01T03:58:48.039Z,26.24
2023-05-01T03:59:48.057Z,26.24
2023-05-01T04:00:48.052Z,26.24
2023-05-01T04:01:48.091Z,26.24
2023-05-01T04:02:48.132Z,26.24
2023-05-01T04:03:48.127Z,26.23
2023-05-01T04:04:48.131Z,26.23
2023-05-01T04:05:48.126Z,26.23
2023-05-01T04:06:48.216Z,26.23
2023-05-01T04:07:48.149Z,26.22
2023-05-01T04:08:48.158Z,26.23
2023-05-01T04:09:48.235Z,26.22
2023-05-01T04:10:48.192Z,26.23
2023-05-01T04:11:48.218Z,26.22
2023-05-01T04:12:48.249Z,26.22
2023-05-01T04:13:48.232Z,26.22
2023-05-01T04:14:48.248Z,26.21
2023-05-01T04:15:48.288Z,26.21
2023-05-01T04:16:48.273Z,26.21
2023-05-01T04:17:48.354Z,26.21
2023-05-01T04:18:48.288Z,26.21
2023-05-01T04:19:48.338Z,26.20
2023-05-01T04:20:48.333Z,26.21
2023-05-01T04:21:48.352Z,26.21
2023-05-01T04:22:48.350Z,26.19
2023-05-01T04:23:48.362Z,26.19
2023-05-01T04:24:48.963Z,26.18
2023-05-01T04:25:48.476Z,26.18
2023-05-01T04:26:48.423Z,26.19
2023-05-01T04:27:48.436Z,26.18
2023-05-01T04:28:48.461Z,26.18
2023-05-01T04:29:48.480Z,26.18
2023-05-01T04:30:48.482Z,26.17
2023-05-01T04:31:48.568Z,26.18
2023-05-01T04:32:48.502Z,26.17
2023-05-01T04:33:48.525Z,26.17
2023-05-01T04:34:48.530Z,26.17
2023-05-01T04:35:48.553Z,26.17
2023-05-01T04:36:48.648Z,26.17
2023-05-01T04:37:48.610Z,26.17
2023-05-01T04:38:48.604Z,26.17
2023-05-01T04:39:48.676Z,26.16
2023-05-01T04:40:48.632Z,26.17
2023-05-01T04:41:48.633Z,26.17
2023-05-01T04:42:48.630Z,26.16
2023-05-01T04:43:48.633Z,26.16
2023-05-01T04:44:48.662Z,26.16
2023-05-01T04:45:48.708Z,26.16
2023-05-01T04:46:48.733Z,26.16
2023-05-01T04:47:48.748Z,26.16
2023-05-01T04:48:48.739Z,26.16
2023-05-01T04:49:48.717Z,26.16
2023-05-01T04:50:48.765Z,26.17
2023-05-01T04:51:48.741Z,26.17
2023-05-01T04:52:48.753Z,26.16
2023-05-01T04:53:48.760Z,26.15
2023-05-01T04:54:48.763Z,26.16
2023-05-01T04:55:48.779Z,26.15
2023-05-01T04:56:48.787Z,26.15
2023-05-01T04:57:48.842Z,26.15
2023-05-01T04:58:48.859Z,26.15
2023-05-01T04:59:48.856Z,26.16
2023-05-01T05:00:48.861Z,26.15
2023-05-01T05:01:48.892Z,26.15
2023-05-01T05:02:48.940Z,26.15
2023-05-01T05:03:50.161Z,26.15
2023-05-01T05:04:48.902Z,26.16
2023-05-01T05:05:48.914Z,26.16
2023-05-01T05:06:49.059Z,26.16
2023-05-01T05:07:48.976Z,26.16
2023-05-01T05:08:48.968Z,26.16
2023-05-01T05:09:48.976Z,26.16
2023-05-01T05:10:48.980Z,26.16
2023-05-01T05:11:48.988Z,26.16
2023-05-01T05:12:49.111Z,26.16
2023-05-01T05:13:49.009Z,26.16
2023-05-01T05:14:49.013Z,26.16
2023-05-01T05:15:49.014Z,26.15
2023-05-01T05:16:49.170Z,26.15
2023-05-01T05:17:49.095Z,26.15
2023-05-01T05:18:49.495Z,26.15
2023-05-01T05:19:49.083Z,26.16
2023-05-01T05:20:49.040Z,26.15
2023-05-01T05:21:49.105Z,26.16
2023-05-01T05:22:49.105Z,26.16
2023-05-01T05:23:49.123Z,26.16
2023-05-01T05:24:49.148Z,26.16
2023-05-01T05:25:49.136Z,26.16
2023-05-01T05:26:49.166Z,26.16
2023-05-01T05:27:49.145Z,26.16
2023-05-01T05:28:49.154Z,26.16
2023-05-01T05:29:49.160Z,26.16
2023-05-01T05:30:49.188Z,26.16
2023-05-01T05:31:49.202Z,26.16
2023-05-01T05:32:49.291Z,26.16
2023-05-01T05:33:49.351Z,26.17
2023-05-01T05:34:49.258Z,26.16
2023-05-01T05:35:49.254Z,26.17
2023-05-01T05:36:49.273Z,26.17
2023-05-01T05:37:49.336Z,26.17
2023-05-01T05:38:49.347Z,26.17
2023-05-01T05:39:49.325Z,26.17
2023-05-01T05:40:49.352Z,26.17
2023-05-01T05:41:49.368Z,26.17
2023-05-01T05:42:49.369Z,26.18
2023-05-01T05:43:49.412Z,26.18
2023-05-01T05:44:49.420Z,26.17
2023-05-01T05:45:49.511Z,26.18
2023-05-01T05:46:49.451Z,26.18
2023-05-01T05:47:49.518Z,26.18
2023-05-01T05:48:49.447Z,26.18
2023-05-01T05:49:49.524Z,26.18
2023-05-01T05:50:49.475Z,26.19
2023-05-01T05:51:49.540Z,26.17
2023-05-01T05:52:49.537Z,26.18
2023-05-01T05:53:49.531Z,26.18
2023-05-01T05:54:49.538Z,26.18
2023-05-01T05:55:49.547Z,26.18
2023-05-01T05:56:49.585Z,26.18
2023-05-01T05:57:49.561Z,26.18
2023-05-01T05:58:49.569Z,26.19
2023-05-01T05:59:49.573Z,26.20
2023-05-01T06:00:49.600Z,26.20
2023-05-01T06:01:49.603Z,26.20
2023-05-01T06:02:49.722Z,26.20
2023-05-01T06:03:49.725Z,26.19
2023-05-01T06:04:49.656Z,26.20
2023-05-01T06:05:49.689Z,26.20
2023-05-01T06:06:49.702Z,26.21
2023-05-01T06:07:49.681Z,26.22
2023-05-01T06:08:49.683Z,26.21
2023-05-01T06:09:49.693Z,26.21
2023-05-01T06:10:49.700Z,26.22
2023-05-01T06:11:49.713Z,26.23
2023-05-01T06:12:53.116Z,26.22
2023-05-01T06:13:50.719Z,26.23
2023-05-01T06:14:49.673Z,26.23
2023-05-01T06:15:49.704Z,26.23
2023-05-01T06:16:49.688Z,26.23
2023-05-01T06:17:49.672Z,26.24
2023-05-01T06:18:49.731Z,26.24
2023-05-01T06:19:49.662Z,26.24
2023-05-01T06:20:49.668Z,26.24
2023-05-01T06:21:49.685Z,26.25
2023-05-01T06:22:49.686Z,26.26
2023-05-01T06:23:49.657Z,26.26
2023-05-01T06:24:49.653Z,26.27
2023-05-01T06:25:49.660Z,26.27
2023-05-01T06:26:50.539Z,26.27
2023-05-01T06:27:49.607Z,26.27
2023-05-01T06:28:49.595Z,26.28
2023-05-01T06:29:49.618Z,26.28
2023-05-01T06:30:49.596Z,26.29
2023-05-01T06:31:49.677Z,26.29
2023-05-01T06:32:49.628Z,26.29
2023-05-01T06:33:49.571Z,26.30
2023-05-01T06:34:49.584Z,26.30
2023-05-01T06:35:49.572Z,26.31
2023-05-01T06:36:49.575Z,26.31
2023-05-01T06:37:49.603Z,26.31
2023-05-01T06:38:49.558Z,26.31
2023-05-01T06:39:49.535Z,26.31
2023-05-01T06:40:49.542Z,26.32
2023-05-01T06:41:49.572Z,26.32
2023-05-01T06:42:49.505Z,26.32
2023-05-01T06:43:49.507Z,26.32
2023-05-01T06:44:49.626Z,26.33
2023-05-01T06:45:49.521Z,26.32
2023-05-01T06:46:49.521Z,26.33
2023-05-01T06:47:49.553Z,26.33
2023-05-01T06:48:49.441Z,26.32
2023-05-01T06:49:49.451Z,26.33
2023-05-01T06:50:49.516Z,26.33
2023-05-01T06:51:49.470Z,26.32
2023-05-01T06:52:49.446Z,26.33
2023-05-01T06:53:49.460Z,26.33
2023-05-01T06:54:49.464Z,26.33
2023-05-01T06:55:49.437Z,26.33
2023-05-01T06:56:49.453Z,26.33
2023-05-01T06:57:49.412Z,26.33
2023-05-01T06:58:49.414Z,26.33
2023-05-01T06:59:49.423Z,26.33
2023-05-01T07:00:49.434Z,26.33
2023-05-01T07:01:49.407Z,26.34
2023-05-01T07:02:49.449Z,26.35
2023-05-01T07:03:49.397Z,26.35
2023-05-01T07:04:49.407Z,26.34
2023-05-01T07:05:49.401Z,26.34
2023-05-01T07:06:49.435Z,26.35
2023-05-01T07:07:58.000Z,26.35
2023-05-01T07:08:50.370Z,26.34
2023-05-01T07:09:49.345Z,26.35
2023-05-01T07:10:49.312Z,26.37
2023-05-01T07:11:49.305Z,26.37
2023-05-01T07:12:49.339Z,26.37
2023-05-01T07:13:49.307Z,26.38
2023-05-01T07:14:49.318Z,26.38
2023-05-01T07:15:49.324Z,26.38
2023-05-01T07:16:49.296Z,26.38
2023-05-01T07:17:49.342Z,26.39
2023-05-01T07:18:49.292Z,26.39
2023-05-01T07:19:49.303Z,26.40
2023-05-01T07:20:49.263Z,26.40
2023-05-01T07:21:49.259Z,26.40
2023-05-01T07:22:49.277Z,26.41
2023-05-01T07:23:49.312Z,26.41
2023-05-01T07:24:49.238Z,26.42
2023-05-01T07:25:49.236Z,26.42
2023-05-01T07:26:49.206Z,26.42
2023-05-01T07:27:49.206Z,26.42
2023-05-01T07:28:49.270Z,26.43
2023-05-01T07:29:49.225Z,26.43
2023-05-01T07:30:49.189Z,26.43
2023-05-01T07:31:49.235Z,26.43
2023-05-01T07:32:49.206Z,26.42
2023-05-01T07:33:49.312Z,26.42
2023-05-01T07:34:49.552Z,26.42
2023-05-01T07:35:49.158Z,26.43
2023-05-01T07:36:49.181Z,26.43
2023-05-01T07:37:49.148Z,26.44
2023-05-01T07:38:49.132Z,26.43
2023-05-01T07:39:49.138Z,26.44
2023-05-01T07:40:49.148Z,26.43
2023-05-01T07:41:49.143Z,26.43
2023-05-01T07:42:49.102Z,26.44
2023-05-01T07:43:49.097Z,26.44
2023-05-01T07:44:49.074Z,26.44
2023-05-01T07:45:49.122Z,26.45
2023-05-01T07:46:49.078Z,26.45
2023-05-01T07:47:49.101Z,26.46
2023-05-01T07:48:49.035Z,26.46
2023-05-01T07:49:49.109Z,26.47
2023-05-01T07:50:49.043Z,26.47
2023-05-01T07:51:49.048Z,26.47
2023-05-01T07:52:49.052Z,26.47
2023-05-01T07:53:49.027Z,26.48
2023-05-01T07:54:49.037Z,26.47
2023-05-01T07:55:49.038Z,26.48
2023-05-01T07:56:49.854Z,26.48
2023-05-01T07:57:49.069Z,26.49
2023-05-01T07:58:49.090Z,26.48
2023-05-01T07:59:49.165Z,26.48
2023-05-01T08:00:49.224Z,26.49
2023-05-01T08:01:49.216Z,26.49
2023-05-01T08:02:49.257Z,26.49
2023-05-01T08:03:50.957Z,26.50
2023-05-01T08:04:49.360Z,26.51
2023-05-01T08:05:49.360Z,26.50
2023-05-01T08:06:49.532Z,26.52
2023-05-01T08:07:49.431Z,26.52
2023-05-01T08:08:49.489Z,26.52
2023-05-01T08:09:49.541Z,26.53
2023-05-01T08:10:49.541Z,26.52
2023-05-01T08:11:49.708Z,26.53
2023-05-01T08:12:49.662Z,26.54
2023-05-01T08:13:49.669Z,26.55
2023-05-01T08:14:49.699Z,26.56
2023-05-01T08:15:50.174Z,26.57
2023-05-01T08:16:49.898Z,26.58
2023-05-01T08:17:49.886Z,26.59
2023-05-01T08:18:50.105Z,26.60
2023-05-01T08:19:49.967Z,26.61
2023-05-01T08:20:49.958Z,26.61
2023-05-01T08:21:50.055Z,26.62
2023-05-01T08:22:50.098Z,26.62
2023-05-01T08:23:50.153Z,26.62
2023-05-01T08:24:50.202Z,26.63
2023-05-01T08:25:50.272Z,26.64
2023-05-01T08:26:50.318Z,26.64
2023-05-01T08:27:50.406Z,26.65
2023-05-01T08:28:50.437Z,26.65
2023-05-01T08:29:50.620Z,26.65
2023-05-01T08:30:50.690Z,26.66
2023-05-01T08:31:50.768Z,26.66
2023-05-01T08:32:50.764Z,26.66
2023-05-01T08:33:50.741Z,26.66
2023-05-01T08:34:50.826Z,26.66
2023-05-01T08:35:50.900Z,26.66
2023-05-01T08:36:50.959Z,26.67
2023-05-01T08:37:51.024Z,26.67
2023-05-01T08:38:51.060Z,26.68
2023-05-01T08:39:51.133Z,26.68
2023-05-01T08:40:51.188Z,26.68
2023-05-01T08:41:51.239Z,26.69
2023-05-01T08:42:51.269Z,26.69
2023-05-01T08:43:51.349Z,26.69
2023-05-01T08:44:51.425Z,26.70
2023-05-01T08:45:51.433Z,26.70
2023-05-01T08:46:51.535Z,26.71
2023-05-01T08:47:51.568Z,26.71
2023-05-01T08:48:51.598Z,26.72
2023-05-01T08:49:51.668Z,26.73
2023-05-01T08:50:51.720Z,26.73
2023-05-01T08:51:51.783Z,26.74
2023-05-01T08:52:51.823Z,26.74
2023-05-01T08:53:51.886Z,26.75
2023-05-01T08:54:51.940Z,26.76
2023-05-01T08:55:51.972Z,26.77
2023-05-01T08:56:52.049Z,26.77
2023-05-01T08:57:52.137Z,26.77
2023-05-01T08:58:52.179Z,26.79
2023-05-01T08:59:52.236Z,26.79
2023-05-01T09:00:52.248Z,26.80
2023-05-01T09:01:52.357Z,26.80
2023-05-01T09:02:52.397Z,26.81
2023-05-01T09:03:52.467Z,26.81
2023-05-01T09:04:52.481Z,26.81
2023-05-01T09:05:52.536Z,26.82
2023-05-01T09:06:52.590Z,26.82
2023-05-01T09:07:52.601Z,26.82
2023-05-01T09:08:52.662Z,26.82
2023-05-01T09:09:52.731Z,26.83
2023-05-01T09:10:52.723Z,26.84
2023-05-01T09:11:52.771Z,26.84
2023-05-01T09:12:52.795Z,26.84
2023-05-01T09:13:52.892Z,26.85
2023-05-01T09:14:52.888Z,26.85
2023-05-01T09:15:53.011Z,26.85
2023-05-01T09:16:53.158Z,26.86
2023-05-01T09:17:53.107Z,26.86
2023-05-01T09:18:53.111Z,26.87
2023-05-01T09:19:53.404Z,26.87
2023-05-01T09:20:53.239Z,26.87
2023-05-01T09:21:53.292Z,26.87
2023-05-01T09:22:53.319Z,26.88
2023-05-01T09:23:53.362Z,26.89
2023-05-01T09:24:53.410Z,26.89
2023-05-01T09:25:53.471Z,26.90
2023-05-01T09:26:53.565Z,26.90
2023-05-01T09:27:53.590Z,26.91
2023-05-01T09:28:53.649Z,26.91
2023-05-01T09:29:53.732Z,26.92
2023-05-01T09:30:53.739Z,26.92
2023-05-01T09:31:53.858Z,26.92
2023-05-01T09:32:53.840Z,26.94
2023-05-01T09:33:53.894Z,26.94
2023-05-01T09:34:53.943Z,26.94
2023-05-01T09:35:54.031Z,26.95
2023-05-01T09:36:54.077Z,26.95
2023-05-01T09:37:54.126Z,26.96
2023-05-01T09:38:54.148Z,26.96
2023-05-01T09:39:54.384Z,26.96
2023-05-01T09:40:54.274Z,26.98
2023-05-01T09:41:54.328Z,26.98
2023-05-01T09:42:54.393Z,26.98
2023-05-01T09:43:54.418Z,26.99
2023-05-01T09:44:54.485Z,27.00
2023-05-01T09:45:54.593Z,27.01
2023-05-01T09:46:54.552Z,27.01
2023-05-01T09:47:54.716Z,27.01
2023-05-01T09:48:54.652Z,27.01
2023-05-01T09:49:54.875Z,27.02
2023-05-01T09:50:54.777Z,27.02
2023-05-01T09:51:54.829Z,27.03
2023-05-01T09:52:54.842Z,27.03
2023-05-01T09:53:54.898Z,27.03
2023-05-01T09:54:54.913Z,27.03
2023-05-01T09:55:55.015Z,27.04
2023-05-01T09:56:55.086Z,27.04
2023-05-01T09:57:55.065Z,27.03
2023-05-01T09:58:55.141Z,27.03
2023-05-01T09:59:55.405Z,27.04
2023-05-01T10:00:55.250Z,27.04
2023-05-01T10:01:55.375Z,27.05
2023-05-01T10:02:55.620Z,27.05
2023-05-01T10:03:55.547Z,27.06
2023-05-01T10:04:55.432Z,27.05
2023-05-01T10:05:55.450Z,27.06
2023-05-01T10:06:55.634Z,27.06
2023-05-01T10:07:55.565Z,27.07
2023-05-01T10:08:55.586Z,27.08
2023-05-01T10:09:56.470Z,27.08
2023-05-01T10:10:55.689Z,27.08
2023-05-01T10:11:55.851Z,27.09
2023-05-01T10:12:55.773Z,27.09
2023-05-01T10:13:55.813Z,27.09
2023-05-01T10:14:55.820Z,27.10
2023-05-01T10:15:55.874Z,27.10
2023-05-01T10:16:55.975Z,27.10
2023-05-01T10:17:56.018Z,27.10
2023-05-01T10:18:55.994Z,27.11
2023-05-01T10:19:56.241Z,27.11
2023-05-01T10:20:56.056Z,27.11
2023-05-01T10:21:56.134Z,27.12
2023-05-01T10:22:56.144Z,27.12
2023-05-01T10:23:56.205Z,27.12
2023-05-01T10:24:56.288Z,27.13
2023-05-01T10:25:56.354Z,27.13
2023-05-01T10:26:56.430Z,27.13
2023-05-01T10:27:56.412Z,27.14
2023-05-01T10:28:56.421Z,27.15
2023-05-01T10:29:56.655Z,27.15
2023-05-01T10:30:56.556Z,27.15
2023-05-01T10:31:56.740Z,27.15
2023-05-01T10:32:56.612Z,27.16
2023-05-01T10:33:56.606Z,27.16
2023-05-01T10:34:56.868Z,27.17
2023-05-01T10:35:56.687Z,27.17
2023-05-01T10:36:56.729Z,27.17
2023-05-01T10:37:56.758Z,27.18
2023-05-01T10:38:56.791Z,27.18
2023-05-01T10:39:56.787Z,27.19
2023-05-01T10:40:56.843Z,27.20
2023-05-01T10:41:56.827Z,27.21
2023-05-01T10:42:56.880Z,27.22
2023-05-01T10:43:56.934Z,27.22
2023-05-01T10:44:57.154Z,27.23
2023-05-01T10:45:56.996Z,27.23
2023-05-01T10:46:57.027Z,27.24
2023-05-01T10:47:57.084Z,27.24
2023-05-01T10:48:57.071Z,27.25
2023-05-01T10:49:57.102Z,27.26
2023-05-01T10:50:57.082Z,27.27
2023-05-01T10:51:57.254Z,27.27
2023-05-01T10:52:57.145Z,27.28
2023-05-01T10:53:57.169Z,27.28
2023-05-01T10:54:57.396Z,27.28
2023-05-01T10:55:57.220Z,27.29
2023-05-01T10:56:57.321Z,27.28
2023-05-01T10:57:57.278Z,27.29
2023-05-01T10:58:57.288Z,27.31
2023-05-01T10:59:57.296Z,27.31
2023-05-01T11:00:57.355Z,27.32
2023-05-01T11:01:57.389Z,27.33
2023-05-01T11:02:57.405Z,27.33
2023-05-01T11:03:57.460Z,27.34
2023-05-01T11:04:57.607Z,27.35
2023-05-01T11:05:57.577Z,27.35
2023-05-01T11:06:57.524Z,27.36
2023-05-01T11:07:57.507Z,27.36
2023-05-01T11:08:57.538Z,27.37
2023-05-01T11:09:57.589Z,27.38
2023-05-01T11:10:57.564Z,27.38
2023-05-01T11:11:57.576Z,27.39
2023-05-01T11:12:57.645Z,27.40
2023-05-01T11:13:57.602Z,27.41
2023-05-01T11:14:57.918Z,27.42
2023-05-01T11:15:57.628Z,27.42
2023-05-01T11:16:57.671Z,27.42
2023-05-01T11:17:57.676Z,27.42
2023-05-01T11:18:57.683Z,27.43
2023-05-01T11:19:57.687Z,27.43
2023-05-01T11:20:57.721Z,27.44
2023-05-01T11:21:57.695Z,27.45
2023-05-01T11:22:57.735Z,27.45
2023-05-01T11:23:57.724Z,27.46
2023-05-01T11:24:58.022Z,27.46
2023-05-01T11:25:57.792Z,27.47
2023-05-01T11:26:57.738Z,27.47
2023-05-01T11:27:57.810Z,27.48
2023-05-01T11:28:57.783Z,27.48
2023-05-01T11:29:57.816Z,27.49
2023-05-01T11:30:57.820Z,27.49
2023-05-01T11:31:57.926Z,27.49
2023-05-01T11:32:57.879Z,27.50
2023-05-01T11:33:57.945Z,27.51
2023-05-01T11:34:58.162Z,27.51
2023-05-01T11:35:57.858Z,27.50
2023-05-01T11:36:57.875Z,27.51
2023-05-01T11:37:57.968Z,27.51
2023-05-01T11:38:57.882Z,27.51
2023-05-01T11:39:57.897Z,27.52
2023-05-01T11:40:57.955Z,27.51
2023-05-01T11:41:57.925Z,27.51
2023-05-01T11:42:57.968Z,27.52
2023-05-01T11:43:58.026Z,27.52
2023-05-01T11:44:58.103Z,27.52
2023-05-01T11:45:57.999Z,27.52
2023-05-01T11:46:57.989Z,27.53
2023-05-01T11:47:58.032Z,27.53
2023-05-01T11:48:58.000Z,27.53
2023-05-01T11:49:57.999Z,27.54
2023-05-01T11:50:57.990Z,27.54
2023-05-01T11:51:58.012Z,27.55
2023-05-01T11:52:58.060Z,27.54
2023-05-01T11:53:58.025Z,27.54
2023-05-01T11:54:58.046Z,27.53
2023-05-01T11:55:58.028Z,27.54
2023-05-01T11:56:58.018Z,27.53
2023-05-01T11:57:58.067Z,27.54
2023-05-01T11:58:58.055Z,27.54
2023-05-01T11:59:58.066Z,27.54
2023-05-01T12:00:58.080Z,27.54
2023-05-01T12:01:58.116Z,27.54
2023-05-01T12:02:58.150Z,27.54
2023-05-01T12:03:58.119Z,27.54
2023-05-01T12:04:58.302Z,27.54
2023-05-01T12:05:58.182Z,27.55
2023-05-01T12:06:58.114Z,27.55
2023-05-01T12:07:58.207Z,27.54
2023-05-01T12:08:58.155Z,27.54
2023-05-01T12:09:58.258Z,27.54
2023-05-01T12:10:58.203Z,27.55
2023-05-01T12:11:58.153Z,27.55
2023-05-01T12:12:58.210Z,27.55
2023-05-01T12:13:58.234Z,27.55
2023-05-01T12:14:58.443Z,27.56
2023-05-01T12:15:58.233Z,27.57
2023-05-01T12:16:58.285Z,27.56
2023-05-01T12:17:58.294Z,27.56
2023-05-01T12:18:58.251Z,27.57
2023-05-01T12:19:58.294Z,27.56
2023-05-01T12:20:58.327Z,27.58
2023-05-01T12:21:58.282Z,27.58
2023-05-01T12:22:58.283Z,27.58
2023-05-01T12:23:58.294Z,27.60
2023-05-01T12:24:58.485Z,27.60
2023-05-01T12:25:58.333Z,27.61
2023-05-01T12:26:58.300Z,27.61
2023-05-01T12:27:58.315Z,27.62
2023-05-01T12:28:58.331Z,27.62
2023-05-01T12:29:58.326Z,27.63
2023-05-01T12:30:58.385Z,27.64
2023-05-01T12:31:58.435Z,27.65
2023-05-01T12:32:58.436Z,27.66
2023-05-01T12:33:58.484Z,27.67
2023-05-01T12:34:58.561Z,27.67
2023-05-01T12:35:58.419Z,27.68
2023-05-01T12:36:58.424Z,27.69
2023-05-01T12:37:58.522Z,27.69
2023-05-01T12:38:58.388Z,27.70
2023-05-01T12:39:58.396Z,27.71
2023-05-01T12:40:58.411Z,27.71
2023-05-01T12:41:58.413Z,27.72
2023-05-01T12:42:58.355Z,27.72
2023-05-01T12:43:58.363Z,27.73
2023-05-01T12:44:58.728Z,27.74
2023-05-01T12:45:58.383Z,27.75
2023-05-01T12:46:58.469Z,27.75
2023-05-01T12:47:58.493Z,27.76
2023-05-01T12:48:58.462Z,27.77
2023-05-01T12:49:58.715Z,27.77
2023-05-01T12:50:58.403Z,27.78
2023-05-01T12:51:58.439Z,27.79
2023-05-01T12:52:58.405Z,27.80